BGA weather

Palonegro Airport
Bucaramanga, Santander Department, Colombia

Public forecast

Using degrees Celsius for public forecast. Weather courtesy of forecast.io.

METAR (pilot weather report)

Retrieved 2019/04/20 11:00 UTC (54 minutes ago):

SKBG 201100Z 18008KT 9999 FEW008 SCT025 BKN050 19/19 A3002

TAF (pilot weather forecast)

Retrieved 2019/04/20 06:30 UTC (5 hours ago):

TAF SKBG 200430Z 2006/2106 05004KT 7000 DZ SCT010 BKN080 BECMG 2009/2011 18005KT 9999 NSW FEW010 BKN070 BECMG 2015/2017 32005KT TX27/2019Z TN18/2011Z